sensor_id;sensor_type;location;lat;lon;timestamp;temperature;humidity
5802;DHT22;2927;49.366;8.530;2023-06-14T00:00:38;19.10;1.00
5802;DHT22;2927;49.366;8.530;2023-06-14T00:03:10;19.10;1.00
5802;DHT22;2927;49.366;8.530;2023-06-14T00:05:37;19.10;1.00
5802;DHT22;2927;49.366;8.530;2023-06-14T00:08:09;19.20;1.00
5802;DHT22;2927;49.366;8.530;2023-06-14T00:10:35;19.20;1.00
5802;DHT22;2927;49.366;8.530;2023-06-14T00:13:02;19.30;1.00
5802;DHT22;2927;49.366;8.530;2023-06-14T00:15:28;19.30;1.00
5802;DHT22;2927;49.366;8.530;2023-06-14T00:17:54;19.30;1.00
5802;DHT22;2927;49.366;8.530;2023-06-14T00:20:20;19.20;1.00
5802;DHT22;2927;49.366;8.530;2023-06-14T00:22:46;19.10;1.00
5802;DHT22;2927;49.366;8.530;2023-06-14T00:25:11;19.10;1.00
5802;DHT22;2927;49.366;8.530;2023-06-14T00:27:37;19.10;1.00
5802;DHT22;2927;49.366;8.530;2023-06-14T00:30:03;19.30;1.00
5802;DHT22;2927;49.366;8.530;2023-06-14T00:32:29;19.40;1.00
5802;DHT22;2927;49.366;8.530;2023-06-14T00:34:55;19.50;1.00
5802;DHT22;2927;49.366;8.530;2023-06-14T00:37:20;19.50;1.00
5802;DHT22;2927;49.366;8.530;2023-06-14T00:39:46;19.40;1.00
5802;DHT22;2927;49.366;8.530;2023-06-14T00:42:11;19.40;1.00
5802;DHT22;2927;49.366;8.530;2023-06-14T00:44:47;19.40;1.00
5802;DHT22;2927;49.366;8.530;2023-06-14T00:47:13;19.50;1.00
5802;DHT22;2927;49.366;8.530;2023-06-14T00:49:38;19.50;1.00
5802;DHT22;2927;49.366;8.530;2023-06-14T00:52:04;19.50;1.00
5802;DHT22;2927;49.366;8.530;2023-06-14T00:54:31;19.50;1.00
5802;DHT22;2927;49.366;8.530;2023-06-14T00:56:57;19.50;1.00
5802;DHT22;2927;49.366;8.530;2023-06-14T00:59:23;19.60;1.00
5802;DHT22;2927;49.366;8.530;2023-06-14T01:01:48;19.70;1.00
5802;DHT22;2927;49.366;8.530;2023-06-14T01:04:14;19.50;1.00
5802;DHT22;2927;49.366;8.530;2023-06-14T01:06:57;19.50;1.00
5802;DHT22;2927;49.366;8.530;2023-06-14T01:09:34;19.40;1.00
5802;DHT22;2927;49.366;8.530;2023-06-14T01:12:10;19.40;1.00
5802;DHT22;2927;49.366;8.530;2023-06-14T01:14:38;19.40;1.00
5802;DHT22;2927;49.366;8.530;2023-06-14T01:17:04;19.40;1.00
5802;DHT22;2927;49.366;8.530;2023-06-14T01:19:30;19.40;1.00
5802;DHT22;2927;49.366;8.530;2023-06-14T01:22:01;19.30;1.00
5802;DHT22;2927;49.366;8.530;2023-06-14T01:24:26;19.00;1.00
5802;DHT22;2927;49.366;8.530;2023-06-14T01:26:57;18.70;1.00
5802;DHT22;2927;49.366;8.530;2023-06-14T01:29:25;18.40;72.20
5802;DHT22;2927;49.366;8.530;2023-06-14T01:31:53;18.20;99.90
5802;DHT22;2927;49.366;8.530;2023-06-14T01:34:19;18.00;99.90
5802;DHT22;2927;49.366;8.530;2023-06-14T01:36:45;17.80;99.90
5802;DHT22;2927;49.366;8.530;2023-06-14T01:39:14;17.60;99.90
5802;DHT22;2927;49.366;8.530;2023-06-14T01:41:40;17.50;99.90
5802;DHT22;2927;49.366;8.530;2023-06-14T01:44:06;17.50;99.90
5802;DHT22;2927;49.366;8.530;2023-06-14T01:46:32;17.40;99.90
5802;DHT22;2927;49.366;8.530;2023-06-14T01:48:58;17.50;99.90
5802;DHT22;2927;49.366;8.530;2023-06-14T01:51:24;17.40;99.90
5802;DHT22;2927;49.366;8.530;2023-06-14T01:53:49;17.40;99.90
5802;DHT22;2927;49.366;8.530;2023-06-14T01:56:15;17.40;99.90
5802;DHT22;2927;49.366;8.530;2023-06-14T01:58:41;17.40;99.90
5802;DHT22;2927;49.366;8.530;2023-06-14T02:01:07;17.40;99.90
5802;DHT22;2927;49.366;8.530;2023-06-14T02:03:32;17.50;99.90
5802;DHT22;2927;49.366;8.530;2023-06-14T02:05:58;17.40;99.90
5802;DHT22;2927;49.366;8.530;2023-06-14T02:08:24;17.30;99.90
5802;DHT22;2927;49.366;8.530;2023-06-14T02:10:50;17.10;99.90
5802;DHT22;2927;49.366;8.530;2023-06-14T02:13:15;17.00;99.90
5802;DHT22;2927;49.366;8.530;2023-06-14T02:15:41;16.80;99.90
5802;DHT22;2927;49.366;8.530;2023-06-14T02:18:09;16.60;1.00
5802;DHT22;2927;49.366;8.530;2023-06-14T02:20:35;16.50;1.00
5802;DHT22;2927;49.366;8.530;2023-06-14T02:23:01;16.40;1.00
5802;DHT22;2927;49.366;8.530;2023-06-14T02:25:26;16.40;1.00
5802;DHT22;2927;49.366;8.530;2023-06-14T02:27:54;16.30;1.00
5802;DHT22;2927;49.366;8.530;2023-06-14T02:30:20;16.20;1.00
5802;DHT22;2927;49.366;8.530;2023-06-14T02:32:46;16.10;1.00
5802;DHT22;2927;49.366;8.530;2023-06-14T02:35:13;16.20;1.00
5802;DHT22;2927;49.366;8.530;2023-06-14T02:37:39;16.20;1.00
5802;DHT22;2927;49.366;8.530;2023-06-14T02:40:05;16.20;1.00
5802;DHT22;2927;49.366;8.530;2023-06-14T02:42:31;16.40;1.00
5802;DHT22;2927;49.366;8.530;2023-06-14T02:44:57;16.50;1.00
5802;DHT22;2927;49.366;8.530;2023-06-14T02:47:22;16.40;1.00
5802;DHT22;2927;49.366;8.530;2023-06-14T02:49:48;16.40;1.00
5802;DHT22;2927;49.366;8.530;2023-06-14T02:52:14;16.40;1.00
5802;DHT22;2927;49.366;8.530;2023-06-14T02:54:39;16.30;1.00
5802;DHT22;2927;49.366;8.530;2023-06-14T02:57:05;16.30;1.00
5802;DHT22;2927;49.366;8.530;2023-06-14T02:59:33;16.20;1.00
5802;DHT22;2927;49.366;8.530;2023-06-14T03:01:58;16.10;1.00
5802;DHT22;2927;49.366;8.530;2023-06-14T03:04:24;16.00;99.90
5802;DHT22;2927;49.366;8.530;2023-06-14T03:06:51;15.80;99.90
5802;DHT22;2927;49.366;8.530;2023-06-14T03:09:17;15.60;1.00
5802;DHT22;2927;49.366;8.530;2023-06-14T03:11:42;15.50;1.00
5802;DHT22;2927;49.366;8.530;2023-06-14T03:14:08;15.40;1.00
5802;DHT22;2927;49.366;8.530;2023-06-14T03:16:34;15.40;1.00
5802;DHT22;2927;49.366;8.530;2023-06-14T03:18:59;15.40;99.90
5802;DHT22;2927;49.366;8.530;2023-06-14T03:21:25;15.40;99.90
5802;DHT22;2927;49.366;8.530;2023-06-14T03:23:51;15.40;99.90
5802;DHT22;2927;49.366;8.530;2023-06-14T03:26:18;15.40;99.90
5802;DHT22;2927;49.366;8.530;2023-06-14T03:28:44;15.50;99.90
5802;DHT22;2927;49.366;8.530;2023-06-14T03:31:11;15.50;99.90
5802;DHT22;2927;49.366;8.530;2023-06-14T03:33:36;15.50;99.90
5802;DHT22;2927;49.366;8.530;2023-06-14T03:36:02;15.50;99.90
5802;DHT22;2927;49.366;8.530;2023-06-14T03:38:28;15.40;99.90
5802;DHT22;2927;49.366;8.530;2023-06-14T03:40:54;15.40;99.90
5802;DHT22;2927;49.366;8.530;2023-06-14T03:43:19;15.40;99.90
5802;DHT22;2927;49.366;8.530;2023-06-14T03:45:45;15.50;99.90
5802;DHT22;2927;49.366;8.530;2023-06-14T03:48:11;15.50;99.90
5802;DHT22;2927;49.366;8.530;2023-06-14T03:50:36;15.50;99.90
5802;DHT22;2927;49.366;8.530;2023-06-14T03:53:06;15.50;99.90
5802;DHT22;2927;49.366;8.530;2023-06-14T03:55:31;15.50;99.90
5802;DHT22;2927;49.366;8.530;2023-06-14T03:57:58;15.50;99.90
5802;DHT22;2927;49.366;8.530;2023-06-14T04:00:24;15.50;1.00
5802;DHT22;2927;49.366;8.530;2023-06-14T04:02:49;15.50;1.00
5802;DHT22;2927;49.366;8.530;2023-06-14T04:05:15;15.50;1.00
5802;DHT22;2927;49.366;8.530;2023-06-14T04:07:42;15.50;99.90
5802;DHT22;2927;49.366;8.530;2023-06-14T04:10:11;15.60;99.90
5802;DHT22;2927;49.366;8.530;2023-06-14T04:12:37;15.70;99.90
5802;DHT22;2927;49.366;8.530;2023-06-14T04:15:03;15.70;99.90
5802;DHT22;2927;49.366;8.530;2023-06-14T04:17:29;15.70;99.90
5802;DHT22;2927;49.366;8.530;2023-06-14T04:19:55;15.70;99.90
5802;DHT22;2927;49.366;8.530;2023-06-14T04:22:20;15.70;1.00
5802;DHT22;2927;49.366;8.530;2023-06-14T04:24:46;15.70;1.00
5802;DHT22;2927;49.366;8.530;2023-06-14T04:27:11;15.70;1.00
5802;DHT22;2927;49.366;8.530;2023-06-14T04:29:37;15.80;1.00
5802;DHT22;2927;49.366;8.530;2023-06-14T04:32:02;15.80;1.00
5802;DHT22;2927;49.366;8.530;2023-06-14T04:34:28;15.90;1.00
5802;DHT22;2927;49.366;8.530;2023-06-14T04:36:59;16.00;1.00
5802;DHT22;2927;49.366;8.530;2023-06-14T04:39:26;16.00;1.00
5802;DHT22;2927;49.366;8.530;2023-06-14T04:41:52;16.10;99.90
5802;DHT22;2927;49.366;8.530;2023-06-14T04:44:25;16.10;99.90
5802;DHT22;2927;49.366;8.530;2023-06-14T04:46:56;16.20;99.90
5802;DHT22;2927;49.366;8.530;2023-06-14T04:49:22;16.40;99.90
5802;DHT22;2927;49.366;8.530;2023-06-14T04:51:49;16.50;99.90
5802;DHT22;2927;49.366;8.530;2023-06-14T04:54:23;16.60;99.90
5802;DHT22;2927;49.366;8.530;2023-06-14T04:56:50;16.70;9.90
5802;DHT22;2927;49.366;8.530;2023-06-14T04:59:16;16.90;1.00
5802;DHT22;2927;49.366;8.530;2023-06-14T05:01:42;17.10;1.00
5802;DHT22;2927;49.366;8.530;2023-06-14T05:04:13;17.20;1.00
5802;DHT22;2927;49.366;8.530;2023-06-14T05:06:38;17.30;1.00
5802;DHT22;2927;49.366;8.530;2023-06-14T05:09:04;17.40;1.00
5802;DHT22;2927;49.366;8.530;2023-06-14T05:11:30;17.60;1.00
5802;DHT22;2927;49.366;8.530;2023-06-14T05:13:55;17.70;1.00
5802;DHT22;2927;49.366;8.530;2023-06-14T05:16:23;17.90;1.00
5802;DHT22;2927;49.366;8.530;2023-06-14T05:18:51;18.10;1.00
5802;DHT22;2927;49.366;8.530;2023-06-14T05:21:17;18.10;1.00
5802;DHT22;2927;49.366;8.530;2023-06-14T05:23:44;18.20;99.90
5802;DHT22;2927;49.366;8.530;2023-06-14T05:26:10;18.30;99.90
5802;DHT22;2927;49.366;8.530;2023-06-14T05:28:36;18.40;99.90
5802;DHT22;2927;49.366;8.530;2023-06-14T05:31:02;18.50;99.90
5802;DHT22;2927;49.366;8.530;2023-06-14T05:33:27;18.70;99.90
5802;DHT22;2927;49.366;8.530;2023-06-14T05:35:53;18.80;99.90
5802;DHT22;2927;49.366;8.530;2023-06-14T05:38:19;19.00;99.90
5802;DHT22;2927;49.366;8.530;2023-06-14T05:40:44;19.20;99.90
5802;DHT22;2927;49.366;8.530;2023-06-14T05:43:10;19.40;99.90
5802;DHT22;2927;49.366;8.530;2023-06-14T05:45:35;19.60;99.90
5802;DHT22;2927;49.366;8.530;2023-06-14T05:48:01;19.90;99.90
5802;DHT22;2927;49.366;8.530;2023-06-14T05:50:27;20.10;99.90
5802;DHT22;2927;49.366;8.530;2023-06-14T05:52:53;20.40;99.90
5802;DHT22;2927;49.366;8.530;2023-06-14T05:55:19;20.80;99.90
5802;DHT22;2927;49.366;8.530;2023-06-14T05:57:45;22.80;70.50
5802;DHT22;2927;49.366;8.530;2023-06-14T06:00:11;25.30;1.00
5802;DHT22;2927;49.366;8.530;2023-06-14T06:02:42;26.80;1.00
5802;DHT22;2927;49.366;8.530;2023-06-14T06:05:12;27.90;1.00
5802;DHT22;2927;49.366;8.530;2023-06-14T06:07:38;28.80;1.00
5802;DHT22;2927;49.366;8.530;2023-06-14T06:10:06;30.10;1.00
5802;DHT22;2927;49.366;8.530;2023-06-14T06:12:32;30.00;1.00
5802;DHT22;2927;49.366;8.530;2023-06-14T06:14:58;29.90;1.00
5802;DHT22;2927;49.366;8.530;2023-06-14T06:17:25;30.90;1.00
5802;DHT22;2927;49.366;8.530;2023-06-14T06:19:50;31.20;1.00
5802;DHT22;2927;49.366;8.530;2023-06-14T06:22:16;31.70;1.00
5802;DHT22;2927;49.366;8.530;2023-06-14T06:24:42;31.70;1.00
5802;DHT22;2927;49.366;8.530;2023-06-14T06:27:08;31.80;1.00
5802;DHT22;2927;49.366;8.530;2023-06-14T06:29:34;31.60;1.00
5802;DHT22;2927;49.366;8.530;2023-06-14T06:32:00;32.20;1.00
5802;DHT22;2927;49.366;8.530;2023-06-14T06:34:26;32.90;1.00
5802;DHT22;2927;49.366;8.530;2023-06-14T06:36:52;32.80;1.00
5802;DHT22;2927;49.366;8.530;2023-06-14T06:39:17;32.80;1.00
5802;DHT22;2927;49.366;8.530;2023-06-14T06:41:43;32.40;1.00
5802;DHT22;2927;49.366;8.530;2023-06-14T06:44:09;31.90;1.00
5802;DHT22;2927;49.366;8.530;2023-06-14T06:46:36;31.20;1.00
5802;DHT22;2927;49.366;8.530;2023-06-14T06:49:06;30.70;1.00
5802;DHT22;2927;49.366;8.530;2023-06-14T06:51:32;32.30;1.00
5802;DHT22;2927;49.366;8.530;2023-06-14T06:53:58;32.80;1.00
5802;DHT22;2927;49.366;8.530;2023-06-14T06:56:23;33.40;1.00
5802;DHT22;2927;49.366;8.530;2023-06-14T06:58:50;32.80;1.00
5802;DHT22;2927;49.366;8.530;2023-06-14T07:01:17;33.00;1.00
5802;DHT22;2927;49.366;8.530;2023-06-14T07:03:43;32.20;1.00
5802;DHT22;2927;49.366;8.530;2023-06-14T07:06:08;32.10;1.00
5802;DHT22;2927;49.366;8.530;2023-06-14T07:08:34;32.00;1.00
5802;DHT22;2927;49.366;8.530;2023-06-14T07:11:01;32.10;1.00
5802;DHT22;2927;49.366;8.530;2023-06-14T07:13:27;33.10;1.00
5802;DHT22;2927;49.366;8.530;2023-06-14T07:15:58;32.80;1.00
5802;DHT22;2927;49.366;8.530;2023-06-14T07:18:24;32.40;1.00
5802;DHT22;2927;49.366;8.530;2023-06-14T07:20:50;32.50;1.00
5802;DHT22;2927;49.366;8.530;2023-06-14T07:23:16;33.00;1.00
5802;DHT22;2927;49.366;8.530;2023-06-14T07:25:41;32.20;1.00
5802;DHT22;2927;49.366;8.530;2023-06-14T07:28:07;32.50;1.00
5802;DHT22;2927;49.366;8.530;2023-06-14T07:30:32;33.20;1.00
5802;DHT22;2927;49.366;8.530;2023-06-14T07:32:58;33.40;1.00
5802;DHT22;2927;49.366;8.530;2023-06-14T07:35:23;34.10;1.00
5802;DHT22;2927;49.366;8.530;2023-06-14T07:37:49;34.50;1.00
5802;DHT22;2927;49.366;8.530;2023-06-14T07:40:15;34.90;1.00
5802;DHT22;2927;49.366;8.530;2023-06-14T07:42:41;35.20;1.00
5802;DHT22;2927;49.366;8.530;2023-06-14T07:45:07;35.40;1.00
5802;DHT22;2927;49.366;8.530;2023-06-14T07:47:33;35.30;1.00
5802;DHT22;2927;49.366;8.530;2023-06-14T07:49:59;35.10;1.00
5802;DHT22;2927;49.366;8.530;2023-06-14T07:52:24;35.20;1.00
5802;DHT22;2927;49.366;8.530;2023-06-14T07:54:50;34.70;1.00
5802;DHT22;2927;49.366;8.530;2023-06-14T07:57:16;35.80;1.00
5802;DHT22;2927;49.366;8.530;2023-06-14T07:59:41;36.10;1.00
5802;DHT22;2927;49.366;8.530;2023-06-14T08:02:07;35.80;1.00
5802;DHT22;2927;49.366;8.530;2023-06-14T08:04:32;35.80;1.00
5802;DHT22;2927;49.366;8.530;2023-06-14T08:07:01;35.90;1.00
5802;DHT22;2927;49.366;8.530;2023-06-14T08:09:27;36.50;1.00
5802;DHT22;2927;49.366;8.530;2023-06-14T08:11:54;36.50;1.00
5802;DHT22;2927;49.366;8.530;2023-06-14T08:14:20;36.30;1.00
5802;DHT22;2927;49.366;8.530;2023-06-14T08:16:45;36.30;1.00
5802;DHT22;2927;49.366;8.530;2023-06-14T08:19:11;36.00;1.00
5802;DHT22;2927;49.366;8.530;2023-06-14T08:21:36;35.70;1.00
5802;DHT22;2927;49.366;8.530;2023-06-14T08:24:02;35.00;1.00
5802;DHT22;2927;49.366;8.530;2023-06-14T08:26:29;33.90;1.00
5802;DHT22;2927;49.366;8.530;2023-06-14T08:28:55;33.80;1.00
5802;DHT22;2927;49.366;8.530;2023-06-14T08:31:21;34.00;1.00
5802;DHT22;2927;49.366;8.530;2023-06-14T08:33:46;34.10;1.00
5802;DHT22;2927;49.366;8.530;2023-06-14T08:36:12;35.00;1.00
5802;DHT22;2927;49.366;8.530;2023-06-14T08:38:38;35.90;1.00
5802;DHT22;2927;49.366;8.530;2023-06-14T08:41:05;36.50;1.00
5802;DHT22;2927;49.366;8.530;2023-06-14T08:43:34;37.10;1.00
5802;DHT22;2927;49.366;8.530;2023-06-14T08:46:04;36.50;1.00
5802;DHT22;2927;49.366;8.530;2023-06-14T08:48:31;35.70;1.00
5802;DHT22;2927;49.366;8.530;2023-06-14T08:51:02;36.00;1.00
5802;DHT22;2927;49.366;8.530;2023-06-14T08:53:31;36.00;1.00
5802;DHT22;2927;49.366;8.530;2023-06-14T08:55:58;36.10;1.00
5802;DHT22;2927;49.366;8.530;2023-06-14T08:58:27;34.30;1.00
5802;DHT22;2927;49.366;8.530;2023-06-14T09:00:55;34.20;1.00
5802;DHT22;2927;49.366;8.530;2023-06-14T09:03:21;33.70;1.00
5802;DHT22;2927;49.366;8.530;2023-06-14T09:05:47;34.10;1.00
5802;DHT22;2927;49.366;8.530;2023-06-14T09:08:13;34.30;1.00
5802;DHT22;2927;49.366;8.530;2023-06-14T09:10:40;34.70;1.00
5802;DHT22;2927;49.366;8.530;2023-06-14T09:13:06;35.10;1.00
5802;DHT22;2927;49.366;8.530;2023-06-14T09:15:32;35.80;1.00
5802;DHT22;2927;49.366;8.530;2023-06-14T09:17:57;36.00;1.00
5802;DHT22;2927;49.366;8.530;2023-06-14T09:20:24;35.00;1.00
5802;DHT22;2927;49.366;8.530;2023-06-14T09:22:50;33.50;1.00
5802;DHT22;2927;49.366;8.530;2023-06-14T09:25:15;33.30;1.00
5802;DHT22;2927;49.366;8.530;2023-06-14T09:27:41;33.80;1.00
5802;DHT22;2927;49.366;8.530;2023-06-14T09:30:09;34.10;1.00
5802;DHT22;2927;49.366;8.530;2023-06-14T09:32:41;34.60;1.00
5802;DHT22;2927;49.366;8.530;2023-06-14T09:35:07;34.90;1.00
5802;DHT22;2927;49.366;8.530;2023-06-14T09:37:33;32.90;1.00
5802;DHT22;2927;49.366;8.530;2023-06-14T09:40:00;33.50;1.00
5802;DHT22;2927;49.366;8.530;2023-06-14T09:42:26;33.50;1.00
5802;DHT22;2927;49.366;8.530;2023-06-14T09:44:54;33.80;1.00
5802;DHT22;2927;49.366;8.530;2023-06-14T09:47:20;33.20;1.00
5802;DHT22;2927;49.366;8.530;2023-06-14T09:49:46;31.80;1.00
5802;DHT22;2927;49.366;8.530;2023-06-14T09:52:17;31.60;1.00
5802;DHT22;2927;49.366;8.530;2023-06-14T09:54:44;32.40;1.00
5802;DHT22;2927;49.366;8.530;2023-06-14T09:57:24;33.20;1.00
5802;DHT22;2927;49.366;8.530;2023-06-14T09:59:54;32.80;1.00
5802;DHT22;2927;49.366;8.530;2023-06-14T10:02:25;32.90;1.00
5802;DHT22;2927;49.366;8.530;2023-06-14T10:05:04;31.90;1.00
5802;DHT22;2927;49.366;8.530;2023-06-14T10:07:59;32.00;1.00
5802;DHT22;2927;49.366;8.530;2023-06-14T10:10:25;32.70;1.00
5802;DHT22;2927;49.366;8.530;2023-06-14T10:12:51;33.60;1.00
5802;DHT22;2927;49.366;8.530;2023-06-14T10:15:23;34.20;1.00
5802;DHT22;2927;49.366;8.530;2023-06-14T10:17:56;33.20;1.00
5802;DHT22;2927;49.366;8.530;2023-06-14T10:20:35;34.00;1.00
5802;DHT22;2927;49.366;8.530;2023-06-14T10:23:17;33.40;1.00
5802;DHT22;2927;49.366;8.530;2023-06-14T10:25:44;33.30;1.00
5802;DHT22;2927;49.366;8.530;2023-06-14T10:28:20;33.00;1.00
5802;DHT22;2927;49.366;8.530;2023-06-14T10:31:08;32.20;1.00
5802;DHT22;2927;49.366;8.530;2023-06-14T10:39:06;29.20;1.00
5802;DHT22;2927;49.366;8.530;2023-06-14T10:41:38;28.60;1.00
5802;DHT22;2927;49.366;8.530;2023-06-14T10:46:39;29.40;1.00
5802;DHT22;2927;49.366;8.530;2023-06-14T10:49:05;29.80;1.00
5802;DHT22;2927;49.366;8.530;2023-06-14T10:51:52;30.30;1.00
5802;DHT22;2927;49.366;8.530;2023-06-14T10:54:20;29.90;1.00
5802;DHT22;2927;49.366;8.530;2023-06-14T10:56:51;29.80;1.00
5802;DHT22;2927;49.366;8.530;2023-06-14T10:59:18;29.00;1.00
5802;DHT22;2927;49.366;8.530;2023-06-14T11:04:50;28.00;1.00
5802;DHT22;2927;49.366;8.530;2023-06-14T11:12:27;26.60;1.00
5802;DHT22;2927;49.366;8.530;2023-06-14T11:14:54;26.40;1.00
5802;DHT22;2927;49.366;8.530;2023-06-14T11:17:20;27.20;1.00
5802;DHT22;2927;49.366;8.530;2023-06-14T11:19:45;26.90;1.00
5802;DHT22;2927;49.366;8.530;2023-06-14T11:22:12;27.70;1.00
5802;DHT22;2927;49.366;8.530;2023-06-14T11:24:37;28.20;1.00
5802;DHT22;2927;49.366;8.530;2023-06-14T11:27:03;28.20;1.00
5802;DHT22;2927;49.366;8.530;2023-06-14T11:29:29;27.40;1.00
5802;DHT22;2927;49.366;8.530;2023-06-14T11:31:55;27.00;1.00
5802;DHT22;2927;49.366;8.530;2023-06-14T11:34:21;26.40;1.00
5802;DHT22;2927;49.366;8.530;2023-06-14T11:36:46;26.40;1.00
5802;DHT22;2927;49.366;8.530;2023-06-14T11:39:13;26.70;1.00
5802;DHT22;2927;49.366;8.530;2023-06-14T11:41:45;27.00;1.00
5802;DHT22;2927;49.366;8.530;2023-06-14T11:44:11;27.10;1.00
5802;DHT22;2927;49.366;8.530;2023-06-14T11:46:37;26.70;1.00
5802;DHT22;2927;49.366;8.530;2023-06-14T11:49:03;26.50;1.00
5802;DHT22;2927;49.366;8.530;2023-06-14T11:51:32;26.90;1.00
5802;DHT22;2927;49.366;8.530;2023-06-14T11:53:57;26.70;1.00
5802;DHT22;2927;49.366;8.530;2023-06-14T11:56:23;27.00;1.00
5802;DHT22;2927;49.366;8.530;2023-06-14T11:58:50;26.90;1.00
5802;DHT22;2927;49.366;8.530;2023-06-14T12:01:17;26.80;1.00
5802;DHT22;2927;49.366;8.530;2023-06-14T12:03:50;27.30;1.00
5802;DHT22;2927;49.366;8.530;2023-06-14T12:06:15;27.40;1.00
5802;DHT22;2927;49.366;8.530;2023-06-14T12:08:43;27.20;1.00
5802;DHT22;2927;49.366;8.530;2023-06-14T12:11:12;26.90;1.00
5802;DHT22;2927;49.366;8.530;2023-06-14T12:13:39;26.90;1.00
5802;DHT22;2927;49.366;8.530;2023-06-14T12:16:10;27.10;1.00
5802;DHT22;2927;49.366;8.530;2023-06-14T12:18:39;26.80;1.00
5802;DHT22;2927;49.366;8.530;2023-06-14T12:21:06;26.90;1.00
5802;DHT22;2927;49.366;8.530;2023-06-14T12:23:48;26.90;1.00
5802;DHT22;2927;49.366;8.530;2023-06-14T12:26:16;26.90;1.00
5802;DHT22;2927;49.366;8.530;2023-06-14T12:28:44;27.10;1.00
5802;DHT22;2927;49.366;8.530;2023-06-14T12:31:11;27.20;1.00
5802;DHT22;2927;49.366;8.530;2023-06-14T12:33:38;27.20;1.00
5802;DHT22;2927;49.366;8.530;2023-06-14T12:36:04;27.80;1.00
5802;DHT22;2927;49.366;8.530;2023-06-14T12:38:32;27.60;1.00
5802;DHT22;2927;49.366;8.530;2023-06-14T12:40:57;27.10;1.00
5802;DHT22;2927;49.366;8.530;2023-06-14T12:43:23;27.10;1.00
5802;DHT22;2927;49.366;8.530;2023-06-14T12:45:48;26.90;1.00
5802;DHT22;2927;49.366;8.530;2023-06-14T12:48:14;26.90;1.00
5802;DHT22;2927;49.366;8.530;2023-06-14T12:50:40;27.10;1.00
5802;DHT22;2927;49.366;8.530;2023-06-14T12:53:06;26.90;1.00
5802;DHT22;2927;49.366;8.530;2023-06-14T12:55:32;27.00;1.00
5802;DHT22;2927;49.366;8.530;2023-06-14T12:57:58;26.70;1.00
5802;DHT22;2927;49.366;8.530;2023-06-14T13:00:23;26.80;1.00
5802;DHT22;2927;49.366;8.530;2023-06-14T13:02:51;26.80;1.00
5802;DHT22;2927;49.366;8.530;2023-06-14T13:05:17;26.60;1.00
5802;DHT22;2927;49.366;8.530;2023-06-14T13:07:43;26.40;1.00
5802;DHT22;2927;49.366;8.530;2023-06-14T13:10:09;26.50;1.00
5802;DHT22;2927;49.366;8.530;2023-06-14T13:12:34;26.60;1.00
5802;DHT22;2927;49.366;8.530;2023-06-14T13:15:00;26.60;1.00
5802;DHT22;2927;49.366;8.530;2023-06-14T13:17:25;26.70;1.00
5802;DHT22;2927;49.366;8.530;2023-06-14T13:19:51;27.20;1.00
5802;DHT22;2927;49.366;8.530;2023-06-14T13:22:16;27.20;1.00
5802;DHT22;2927;49.366;8.530;2023-06-14T13:24:42;27.10;1.00
5802;DHT22;2927;49.366;8.530;2023-06-14T13:27:08;27.20;1.00
5802;DHT22;2927;49.366;8.530;2023-06-14T13:29:33;27.40;1.00
5802;DHT22;2927;49.366;8.530;2023-06-14T13:32:01;27.30;1.00
5802;DHT22;2927;49.366;8.530;2023-06-14T13:34:27;27.20;1.00
5802;DHT22;2927;49.366;8.530;2023-06-14T13:36:52;27.00;1.00
5802;DHT22;2927;49.366;8.530;2023-06-14T13:39:19;27.10;1.00
5802;DHT22;2927;49.366;8.530;2023-06-14T13:41:44;27.30;1.00
5802;DHT22;2927;49.366;8.530;2023-06-14T13:44:10;26.90;1.00
5802;DHT22;2927;49.366;8.530;2023-06-14T13:46:40;27.40;1.00
5802;DHT22;2927;49.366;8.530;2023-06-14T13:49:08;27.40;1.00
5802;DHT22;2927;49.366;8.530;2023-06-14T13:51:33;27.00;1.00
5802;DHT22;2927;49.366;8.530;2023-06-14T13:54:00;27.30;1.00
5802;DHT22;2927;49.366;8.530;2023-06-14T13:56:26;27.50;1.00
5802;DHT22;2927;49.366;8.530;2023-06-14T13:58:52;27.40;1.00
5802;DHT22;2927;49.366;8.530;2023-06-14T14:01:18;26.90;1.00
5802;DHT22;2927;49.366;8.530;2023-06-14T14:03:45;26.40;1.00
5802;DHT22;2927;49.366;8.530;2023-06-14T14:06:11;26.20;1.00
5802;DHT22;2927;49.366;8.530;2023-06-14T14:08:37;26.20;1.00
5802;DHT22;2927;49.366;8.530;2023-06-14T14:11:03;26.10;1.00
5802;DHT22;2927;49.366;8.530;2023-06-14T14:13:28;26.10;1.00
5802;DHT22;2927;49.366;8.530;2023-06-14T14:15:54;26.30;1.00
5802;DHT22;2927;49.366;8.530;2023-06-14T14:18:20;26.40;1.00
5802;DHT22;2927;49.366;8.530;2023-06-14T14:20:46;26.20;1.00
5802;DHT22;2927;49.366;8.530;2023-06-14T14:23:12;26.20;1.00
5802;DHT22;2927;49.366;8.530;2023-06-14T14:25:37;26.10;1.00
5802;DHT22;2927;49.366;8.530;2023-06-14T14:28:03;26.10;1.00
5802;DHT22;2927;49.366;8.530;2023-06-14T14:30:30;26.00;1.00
5802;DHT22;2927;49.366;8.530;2023-06-14T14:32:55;26.40;1.00
5802;DHT22;2927;49.366;8.530;2023-06-14T14:35:21;26.50;1.00
5802;DHT22;2927;49.366;8.530;2023-06-14T14:37:48;26.60;1.00
5802;DHT22;2927;49.366;8.530;2023-06-14T14:40:14;26.60;1.00
5802;DHT22;2927;49.366;8.530;2023-06-14T14:42:40;26.80;1.00
5802;DHT22;2927;49.366;8.530;2023-06-14T14:45:06;26.80;1.00
5802;DHT22;2927;49.366;8.530;2023-06-14T14:47:32;27.10;1.00
5802;DHT22;2927;49.366;8.530;2023-06-14T14:49:58;27.20;1.00
5802;DHT22;2927;49.366;8.530;2023-06-14T14:52:23;27.30;1.00
5802;DHT22;2927;49.366;8.530;2023-06-14T14:54:50;27.70;1.00
5802;DHT22;2927;49.366;8.530;2023-06-14T14:57:15;28.00;1.00
5802;DHT22;2927;49.366;8.530;2023-06-14T14:59:41;28.10;1.00
5802;DHT22;2927;49.366;8.530;2023-06-14T15:02:06;28.10;1.00
5802;DHT22;2927;49.366;8.530;2023-06-14T15:04:32;27.80;1.00
5802;DHT22;2927;49.366;8.530;2023-06-14T15:06:58;27.40;1.00
5802;DHT22;2927;49.366;8.530;2023-06-14T15:09:23;26.90;1.00
5802;DHT22;2927;49.366;8.530;2023-06-14T15:11:49;26.70;1.00
5802;DHT22;2927;49.366;8.530;2023-06-14T15:14:14;26.60;1.00
5802;DHT22;2927;49.366;8.530;2023-06-14T15:16:41;26.40;1.00
5802;DHT22;2927;49.366;8.530;2023-06-14T15:19:06;25.90;1.00
5802;DHT22;2927;49.366;8.530;2023-06-14T15:21:32;25.70;1.00
5802;DHT22;2927;49.366;8.530;2023-06-14T15:23:57;25.50;1.00
5802;DHT22;2927;49.366;8.530;2023-06-14T15:26:23;25.20;1.00
5802;DHT22;2927;49.366;8.530;2023-06-14T15:28:50;25.20;1.00
5802;DHT22;2927;49.366;8.530;2023-06-14T15:31:15;25.20;1.00
5802;DHT22;2927;49.366;8.530;2023-06-14T15:33:41;25.40;1.00
5802;DHT22;2927;49.366;8.530;2023-06-14T15:36:06;25.70;1.00
5802;DHT22;2927;49.366;8.530;2023-06-14T15:38:35;26.20;1.00
5802;DHT22;2927;49.366;8.530;2023-06-14T15:41:00;26.50;1.00
5802;DHT22;2927;49.366;8.530;2023-06-14T15:43:26;26.50;1.00
5802;DHT22;2927;49.366;8.530;2023-06-14T15:45:52;26.50;1.00
5802;DHT22;2927;49.366;8.530;2023-06-14T15:48:17;26.60;1.00
5802;DHT22;2927;49.366;8.530;2023-06-14T15:50:43;26.80;1.00
5802;DHT22;2927;49.366;8.530;2023-06-14T15:53:08;26.90;1.00
5802;DHT22;2927;49.366;8.530;2023-06-14T15:55:34;27.00;1.00
5802;DHT22;2927;49.366;8.530;2023-06-14T15:57:59;27.40;1.00
5802;DHT22;2927;49.366;8.530;2023-06-14T16:00:25;27.50;1.00
5802;DHT22;2927;49.366;8.530;2023-06-14T16:02:51;27.40;1.00
5802;DHT22;2927;49.366;8.530;2023-06-14T16:05:17;27.20;1.00
5802;DHT22;2927;49.366;8.530;2023-06-14T16:07:42;27.30;1.00
5802;DHT22;2927;49.366;8.530;2023-06-14T16:10:08;27.40;1.00
5802;DHT22;2927;49.366;8.530;2023-06-14T16:12:34;27.60;1.00
5802;DHT22;2927;49.366;8.530;2023-06-14T16:14:59;27.70;1.00
5802;DHT22;2927;49.366;8.530;2023-06-14T16:17:25;27.40;1.00
5802;DHT22;2927;49.366;8.530;2023-06-14T16:19:51;27.40;1.00
5802;DHT22;2927;49.366;8.530;2023-06-14T16:22:17;27.30;1.00
5802;DHT22;2927;49.366;8.530;2023-06-14T16:24:43;27.00;1.00
5802;DHT22;2927;49.366;8.530;2023-06-14T16:27:09;26.90;1.00